Time;durP1;ratioP1;P1;durP2;ratioP2;P2;SDS_P1;SDS_P2;PMS_P1;PMS_P2;Temp;Humidity;BMP_temperature;BMP_pressure;BME280_temperature;BME280_humidity;BME280_pressure;Samples;Min_cycle;Max_cycle;Signal;HPM_P1;HPM_P2
2022/01/23 00:02:27;;;;;;;14.68;7.65;;;-0.10;70.90;;;;;;5054598;28;20315;-38
2022/01/23 00:04:53;;;;;;;15.23;8.18;;;-0.10;71.00;;;;;;5057604;28;20451;-34
2022/01/23 00:07:19;;;;;;;38.33;15.63;;;-0.20;70.90;;;;;;5059384;28;20357;-34
2022/01/23 00:09:45;;;;;;;24.10;10.77;;;-0.20;71.00;;;;;;5059219;28;20057;-38
2022/01/23 00:12:19;;;;;;;18.23;9.07;;;-0.20;71.00;;;;;;5059169;28;20358;-39
2022/01/23 00:17:35;;;;;;;32.58;14.00;;;-0.20;71.00;;;;;;5059086;28;20036;-39
2022/01/23 00:20:06;;;;;;;23.88;11.35;;;-0.20;71.00;;;;;;5058534;28;20120;-39
2022/01/23 00:30:32;;;;;;;16.60;9.07;;;-0.40;71.30;;;;;;5058565;28;20029;-34
2022/01/23 00:33:00;;;;;;;18.30;8.05;;;-0.30;71.30;;;;;;5058596;28;20418;-38
2022/01/23 00:35:28;;;;;;;14.10;8.10;;;-0.30;71.30;;;;;;5057199;28;20414;-36
2022/01/23 00:37:56;;;;;;;19.73;9.20;;;-0.30;71.30;;;;;;5058672;28;20104;-34
2022/01/23 00:40:23;;;;;;;22.10;10.25;;;-0.30;71.20;;;;;;5057516;28;20112;-37
2022/01/23 00:42:49;;;;;;;21.48;10.88;;;-0.30;71.20;;;;;;5058206;28;20024;-38
2022/01/23 00:48:16;;;;;;;23.13;10.07;;;-0.30;71.10;;;;;;5057043;28;20041;-35
2022/01/23 00:50:45;;;;;;;20.63;10.65;;;-0.40;71.10;;;;;;5058229;28;20029;-35
2022/01/23 00:53:13;;;;;;;27.83;13.48;;;-0.40;71.20;;;;;;5058362;28;20068;-39
2022/01/23 00:55:44;;;;;;;25.23;12.00;;;-0.40;71.20;;;;;;5058092;28;20029;-37
2022/01/23 00:58:12;;;;;;;25.65;12.38;;;-0.40;71.50;;;;;;5058178;28;20033;-39
2022/01/23 01:00:39;;;;;;;22.77;10.48;;;-0.40;71.30;;;;;;5058020;28;20060;-37
2022/01/23 01:03:05;;;;;;;18.30;9.18;;;-0.40;71.30;;;;;;5058240;28;20032;-36
2022/01/23 01:05:31;;;;;;;16.40;9.63;;;-0.40;71.30;;;;;;5057593;28;20048;-38
2022/01/23 01:08:00;;;;;;;23.85;9.90;;;-0.40;71.20;;;;;;5057785;28;20029;-40
2022/01/23 01:10:35;;;;;;;17.77;10.23;;;-0.40;71.20;;;;;;5057722;28;20378;-38
2022/01/23 01:13:04;;;;;;;25.88;12.40;;;-0.40;71.30;;;;;;5057902;28;20108;-40
2022/01/23 01:15:39;;;;;;;20.88;10.02;;;-0.40;71.30;;;;;;5057770;28;20029;-38
2022/01/23 01:31:43;;;;;;;17.77;9.00;;;-0.40;71.60;;;;;;5058012;28;20110;-36
2022/01/23 01:34:18;;;;;;;16.33;9.43;;;-0.40;71.60;;;;;;5057739;28;20480;-38
2022/01/23 01:39:10;;;;;;;14.20;8.10;;;-0.50;71.70;;;;;;5057608;28;20033;-35
2022/01/23 01:41:40;;;;;;;14.60;8.77;;;-0.50;71.80;;;;;;5057676;28;20029;-39
2022/01/23 01:44:07;;;;;;;18.38;9.60;;;-0.50;71.90;;;;;;5057657;28;20036;-40
2022/01/23 01:46:32;;;;;;;15.93;8.80;;;-0.50;72.00;;;;;;5057187;28;20037;-38
2022/01/23 01:48:59;;;;;;;20.27;9.00;;;-0.40;72.10;;;;;;5057629;28;20028;-40
2022/01/23 01:51:30;;;;;;;14.98;9.13;;;-0.40;72.10;;;;;;5056975;28;20025;-32
2022/01/23 01:54:03;;;;;;;13.02;7.55;;;-0.40;72.00;;;;;;5056896;28;20060;-32
2022/01/23 01:56:36;;;;;;;17.85;9.35;;;-0.40;72.00;;;;;;5057195;28;20417;-32
2022/01/23 01:59:20;;;;;;;15.98;9.20;;;-0.40;72.10;;;;;;5057264;28;20059;-32
2022/01/23 02:09:36;;;;;;;20.17;10.10;;;-0.40;72.10;;;;;;5057192;28;20108;-31
2022/01/23 02:14:46;;;;;;;21.10;10.80;;;-0.30;72.20;;;;;;5056765;28;20037;-32
2022/01/23 02:55:17;;;;;;;24.20;12.23;;;-0.30;72.00;;;;;;5056414;28;20436;-31
2022/01/23 03:00:15;;;;;;;27.05;13.55;;;-0.20;72.20;;;;;;5056330;28;20080;-31
2022/01/23 03:02:45;;;;;;;26.05;13.27;;;-0.20;72.20;;;;;;5056091;28;20032;-32
2022/01/23 03:05:24;;;;;;;21.23;12.18;;;-0.10;72.20;;;;;;5054913;28;20459;-31
2022/01/23 03:10:26;;;;;;;25.10;15.10;;;0.00;72.10;;;;;;5055505;28;20109;-32
2022/01/23 03:26:36;;;;;;;30.60;13.75;;;0.20;71.50;;;;;;5055379;28;20279;-32
2022/01/23 03:32:00;;;;;;;22.10;11.85;;;0.30;71.50;;;;;;5055337;28;20041;-32
2022/01/23 03:34:27;;;;;;;22.52;11.30;;;0.30;71.50;;;;;;5055823;28;20044;-32
2022/01/23 03:36:55;;;;;;;22.65;12.63;;;0.30;71.40;;;;;;5056015;28;20360;-33
2022/01/23 03:39:21;;;;;;;28.30;15.35;;;0.30;71.40;;;;;;5055601;28;20043;-31
2022/01/23 03:41:46;;;;;;;32.45;17.02;;;0.30;71.30;;;;;;5055861;28;20025;-32
2022/01/23 03:44:15;;;;;;;27.83;13.40;;;0.30;71.10;;;;;;5055866;28;20033;-32
2022/01/23 03:47:01;;;;;;;25.35;12.75;;;0.30;71.10;;;;;;5055404;28;20025;-32
2022/01/23 03:49:31;;;;;;;24.15;13.27;;;0.20;71.20;;;;;;5055607;28;20033;-32
2022/01/23 03:52:04;;;;;;;27.10;12.43;;;0.30;71.30;;;;;;5055242;28;20104;-32
2022/01/23 03:54:30;;;;;;;24.52;12.02;;;0.20;71.20;;;;;;5055588;28;20033;-33
2022/01/23 03:56:58;;;;;;;27.08;13.50;;;0.20;71.20;;;;;;5055516;28;20040;-32
2022/01/23 03:59:24;;;;;;;26.98;13.98;;;0.20;71.20;;;;;;5055067;28;20037;-32
2022/01/23 04:01:51;;;;;;;31.27;15.23;;;0.20;71.20;;;;;;5055358;28;20103;-32
2022/01/23 04:06:48;;;;;;;31.15;13.95;;;0.20;71.30;;;;;;5055840;28;20107;-33
2022/01/23 04:09:14;;;;;;;24.00;13.52;;;0.30;71.40;;;;;;5054292;28;20326;-32
2022/01/23 04:11:40;;;;;;;25.30;12.85;;;0.30;71.40;;;;;;5055130;28;20029;-32
2022/01/23 04:14:09;;;;;;;28.90;12.35;;;0.30;71.40;;;;;;5055567;28;20033;-32
2022/01/23 04:19:35;;;;;;;37.22;18.58;;;0.30;71.50;;;;;;5059238;28;20075;-31
2022/01/23 05:00:21;;;;;;;17.38;11.00;;;0.40;71.20;;;;;;5058249;28;20337;-32
2022/01/23 05:05:47;;;;;;;19.40;10.68;;;0.40;71.10;;;;;;5045602;28;20045;-32
2022/01/23 05:08:17;;;;;;;16.92;11.30;;;0.40;71.10;;;;;;5057791;28;20039;-31
2022/01/23 05:10:45;;;;;;;21.35;11.88;;;0.30;70.90;;;;;;5057962;28;20037;-31
2022/01/23 05:13:11;;;;;;;20.67;11.93;;;0.30;70.90;;;;;;5057901;28;20086;-32
2022/01/23 05:15:37;;;;;;;20.08;11.48;;;0.30;70.80;;;;;;5057888;28;20414;-32
2022/01/23 05:18:03;;;;;;;19.42;11.88;;;0.30;70.80;;;;;;5057842;28;20029;-32
2022/01/23 05:20:29;;;;;;;19.30;11.85;;;0.20;70.60;;;;;;5057395;28;20102;-32
2022/01/23 05:23:02;;;;;;;23.13;12.82;;;0.20;70.60;;;;;;5057764;28;20029;-32
2022/01/23 05:25:30;;;;;;;23.40;12.65;;;0.10;70.50;;;;;;5057325;28;20086;-31
2022/01/23 05:27:56;;;;;;;22.65;12.15;;;0.10;70.50;;;;;;5057023;28;20033;-32
2022/01/23 05:30:23;;;;;;;20.00;12.07;;;0.00;70.50;;;;;;5057123;28;20037;-32
2022/01/23 05:32:48;;;;;;;21.90;12.23;;;-0.10;70.50;;;;;;5057371;28;20029;-32
2022/01/23 05:35:20;;;;;;;24.15;13.77;;;-0.10;70.70;;;;;;5057262;28;20033;-32
2022/01/23 05:37:46;;;;;;;22.15;12.75;;;-0.10;70.80;;;;;;5057700;28;20040;-31
2022/01/23 05:40:14;;;;;;;24.05;14.30;;;-0.10;71.00;;;;;;5057505;28;20331;-31
2022/01/23 05:42:41;;;;;;;21.63;12.38;;;-0.10;71.20;;;;;;5057226;28;20037;-32
2022/01/23 05:45:08;;;;;;;22.55;13.38;;;-0.20;71.30;;;;;;5057580;28;20112;-31
2022/01/23 05:47:34;;;;;;;24.42;13.90;;;-0.10;71.30;;;;;;5057517;28;20037;-32
2022/01/23 05:50:00;;;;;;;25.77;12.70;;;-0.10;71.50;;;;;;5057338;28;20024;-31
2022/01/23 05:52:26;;;;;;;26.02;15.90;;;-0.10;72.10;;;;;;5057400;28;20167;-32
2022/01/23 05:54:52;;;;;;;24.27;14.90;;;0.00;71.60;;;;;;5057247;28;20020;-32
2022/01/23 05:57:18;;;;;;;25.73;15.30;;;0.00;71.60;;;;;;5057444;28;20044;-32
2022/01/23 05:59:43;;;;;;;25.90;13.68;;;0.00;71.70;;;;;;5057258;28;20025;-33
2022/01/23 06:02:09;;;;;;;25.38;14.30;;;0.00;71.70;;;;;;5057069;28;20036;-31
2022/01/23 06:04:35;;;;;;;24.60;14.25;;;0.00;71.70;;;;;;5056633;28;20264;-32
2022/01/23 06:07:01;;;;;;;25.38;14.88;;;0.10;71.50;;;;;;5056692;28;20091;-32
2022/01/23 06:09:27;;;;;;;25.55;14.90;;;0.10;71.40;;;;;;5056909;28;20041;-32
2022/01/23 06:11:53;;;;;;;23.33;14.02;;;0.10;71.40;;;;;;5056757;28;20103;-32
2022/01/23 06:14:20;;;;;;;25.48;14.90;;;0.10;71.40;;;;;;5055453;28;20432;-32
2022/01/23 06:16:46;;;;;;;28.08;15.10;;;0.10;71.10;;;;;;5057183;28;20317;-32
2022/01/23 06:19:11;;;;;;;24.33;13.07;;;0.10;71.10;;;;;;5056756;28;20020;-32
2022/01/23 06:21:37;;;;;;;23.67;13.00;;;0.10;70.90;;;;;;5056432;28;20025;-32
2022/01/23 06:24:14;;;;;;;23.90;14.40;;;0.00;70.80;;;;;;5056515;28;20107;-32
2022/01/23 06:26:50;;;;;;;21.80;14.10;;;0.00;70.80;;;;;;5056883;28;20029;-32
2022/01/23 06:29:17;;;;;;;23.00;14.32;;;-0.10;70.70;;;;;;5056037;28;20111;-32
2022/01/23 06:31:46;;;;;;;25.90;14.38;;;-0.10;70.80;;;;;;5056453;28;20298;-32
2022/01/23 06:34:12;;;;;;;25.42;14.48;;;-0.10;70.90;;;;;;5056511;28;20036;-32
2022/01/23 06:36:38;;;;;;;29.55;15.75;;;-0.10;70.90;;;;;;5056112;28;20187;-32
2022/01/23 06:39:06;;;;;;;28.35;15.13;;;-0.10;70.90;;;;;;5055098;28;20025;-31
2022/01/23 06:41:31;;;;;;;41.17;22.20;;;-0.10;71.00;;;;;;5056053;28;20033;-32
2022/01/23 06:43:57;;;;;;;24.67;13.25;;;-0.10;71.20;;;;;;5056532;28;20040;-32
2022/01/23 06:46:23;;;;;;;32.60;18.80;;;-0.10;71.30;;;;;;5055793;28;20033;-31
2022/01/23 06:48:49;;;;;;;146.20;54.42;;;-0.10;71.30;;;;;;5055316;28;20366;-31
2022/01/23 06:51:15;;;;;;;71.90;27.52;;;-0.10;71.10;;;;;;5055570;28;20116;-32
2022/01/23 06:53:40;;;;;;;70.25;28.33;;;0.00;71.10;;;;;;5056061;28;20052;-32
2022/01/23 06:56:06;;;;;;;69.65;31.08;;;-0.10;70.90;;;;;;5055682;28;20067;-31
2022/01/23 06:58:32;;;;;;;24.33;14.35;;;-0.10;70.90;;;;;;5056006;28;20091;-39
2022/01/23 07:00:58;;;;;;;25.33;13.75;;;-0.10;70.70;;;;;;5055782;28;20037;-32
2022/01/23 07:03:24;;;;;;;36.67;19.27;;;-0.10;70.80;;;;;;5055958;28;20039;-32
2022/01/23 07:05:50;;;;;;;37.20;19.15;;;-0.10;70.60;;;;;;5055797;28;20064;-32
2022/01/23 07:08:15;;;;;;;40.17;25.67;;;-0.10;70.70;;;;;;5055674;28;20396;-36
2022/01/23 07:10:41;;;;;;;31.20;16.45;;;-0.10;70.80;;;;;;5055163;28;20025;-37
2022/01/23 07:13:07;;;;;;;24.63;13.80;;;-0.10;70.70;;;;;;5056033;28;21266;-35
2022/01/23 07:15:32;;;;;;;24.67;14.90;;;-0.10;70.70;;;;;;5055360;28;20374;-38
2022/01/23 07:17:58;;;;;;;23.38;12.43;;;-0.10;70.60;;;;;;5055728;28;20332;-37
2022/01/23 07:20:24;;;;;;;20.77;11.05;;;0.00;70.50;;;;;;5055105;28;20102;-37
2022/01/23 07:22:50;;;;;;;19.63;11.43;;;0.00;70.40;;;;;;5055653;28;20032;-34
2022/01/23 07:25:15;;;;;;;50.47;26.60;;;0.00;70.30;;;;;;5055101;28;20485;-37
2022/01/23 07:27:51;;;;;;;23.08;13.32;;;0.00;70.40;;;;;;5055481;28;20119;-39
2022/01/23 07:30:31;;;;;;;17.67;11.50;;;0.00;70.20;;;;;;5055381;28;20037;-40
2022/01/23 07:32:57;;;;;;;19.15;11.50;;;0.10;70.30;;;;;;5055544;28;20017;-39
2022/01/23 07:35:22;;;;;;;52.13;29.88;;;0.10;70.30;;;;;;5055113;28;20453;-39
2022/01/23 07:37:48;;;;;;;21.83;12.20;;;0.20;70.30;;;;;;5055756;28;20025;-34
2022/01/23 07:40:14;;;;;;;22.10;11.73;;;0.20;69.90;;;;;;5055295;28;20342;-36
2022/01/23 07:42:40;;;;;;;19.70;11.45;;;0.20;69.80;;;;;;5055411;28;20345;-37
2022/01/23 07:45:06;;;;;;;22.55;11.95;;;0.30;69.80;;;;;;5055632;28;20033;-39
2022/01/23 07:47:32;;;;;;;17.73;10.65;;;0.30;69.60;;;;;;5055413;28;20051;-37
2022/01/23 07:49:58;;;;;;;18.95;10.85;;;0.30;69.50;;;;;;5055777;28;20025;-40
2022/01/23 07:52:23;;;;;;;18.73;11.15;;;0.30;69.20;;;;;;5059028;28;20025;-37
2022/01/23 07:54:49;;;;;;;32.00;16.48;;;0.30;69.10;;;;;;5058960;28;20052;-40
2022/01/23 07:57:14;;;;;;;26.45;14.07;;;0.30;69.20;;;;;;5059622;28;20503;-40
2022/01/23 07:59:40;;;;;;;22.30;13.25;;;0.30;69.20;;;;;;5059434;28;20048;-35
2022/01/23 08:02:06;;;;;;;19.63;12.38;;;0.30;68.80;;;;;;5058995;28;20087;-39
2022/01/23 08:04:31;;;;;;;17.25;10.23;;;0.30;68.60;;;;;;5058682;28;20060;-34
2022/01/23 08:07:09;;;;;;;59.80;30.65;;;0.30;68.50;;;;;;5057821;28;20041;-39
2022/01/23 08:09:35;;;;;;;17.38;11.55;;;0.20;68.60;;;;;;5059013;28;20254;-32
2022/01/23 08:12:01;;;;;;;18.10;10.85;;;0.20;68.60;;;;;;5059061;28;20029;-32
2022/01/23 08:14:27;;;;;;;26.02;16.25;;;0.10;68.40;;;;;;5058798;28;20033;-32
2022/01/23 08:16:53;;;;;;;149.05;62.72;;;0.10;68.50;;;;;;5058743;28;20060;-33
2022/01/23 08:19:18;;;;;;;49.83;21.90;;;0.00;68.70;;;;;;5058957;28;20029;-33
2022/01/23 08:21:44;;;;;;;47.42;26.77;;;0.00;68.70;;;;;;5058861;28;20033;-33
2022/01/23 08:24:11;;;;;;;29.25;18.00;;;-0.10;68.70;;;;;;5058783;28;20313;-33
2022/01/23 08:26:37;;;;;;;51.60;26.30;;;-0.10;68.80;;;;;;5058700;28;20029;-33
2022/01/23 08:29:05;;;;;;;66.60;33.25;;;-0.10;68.80;;;;;;5059008;28;20353;-32
2022/01/23 08:31:30;;;;;;;20.27;11.25;;;-0.20;68.70;;;;;;5058374;28;20079;-32
2022/01/23 08:33:56;;;;;;;19.77;12.20;;;-0.20;68.80;;;;;;5058692;28;20393;-32
2022/01/23 08:36:22;;;;;;;86.13;43.05;;;-0.30;68.80;;;;;;5058007;28;20056;-33
2022/01/23 08:38:48;;;;;;;55.20;26.35;;;-0.30;69.20;;;;;;5058368;28;20029;-33
2022/01/23 08:43:48;;;;;;;16.10;9.60;;;-0.30;69.50;;;;;;5058663;28;20435;-33
2022/01/23 08:46:13;;;;;;;19.67;9.32;;;-0.30;69.50;;;;;;5057997;28;20037;-33
2022/01/23 08:48:41;;;;;;;16.27;10.13;;;-0.30;69.60;;;;;;5058453;28;20029;-32
2022/01/23 08:51:07;;;;;;;38.10;19.40;;;-0.40;69.70;;;;;;5057705;28;20033;-32
2022/01/23 08:53:33;;;;;;;24.52;14.52;;;-0.40;69.80;;;;;;5058253;28;20501;-33
2022/01/23 08:55:59;;;;;;;16.35;10.00;;;-0.30;70.50;;;;;;5058134;28;20120;-33
2022/01/23 08:58:26;;;;;;;39.65;20.35;;;-0.30;70.00;;;;;;5058139;28;20025;-32
2022/01/23 09:00:52;;;;;;;17.15;9.05;;;-0.20;69.90;;;;;;5058058;28;20314;-32
2022/01/23 09:03:18;;;;;;;34.47;17.38;;;-0.20;69.80;;;;;;5056750;28;20103;-32
2022/01/23 09:05:43;;;;;;;29.02;15.52;;;-0.20;69.70;;;;;;5057419;28;20144;-32
2022/01/23 09:08:09;;;;;;;17.48;9.48;;;-0.10;69.70;;;;;;5057796;28;20416;-33
2022/01/23 09:10:51;;;;;;;17.85;9.57;;;0.00;69.50;;;;;;5057429;28;20104;-33
2022/01/23 09:13:31;;;;;;;80.68;33.13;;;0.00;69.50;;;;;;5056444;28;20337;-32
2022/01/23 09:15:57;;;;;;;21.20;11.52;;;0.10;69.70;;;;;;5057373;28;20029;-32
2022/01/23 09:18:23;;;;;;;18.02;9.63;;;0.20;69.60;;;;;;5057715;28;20044;-32
2022/01/23 09:20:48;;;;;;;17.98;9.38;;;0.30;69.30;;;;;;5057251;28;20349;-32
2022/01/23 09:23:14;;;;;;;27.88;14.05;;;0.40;69.30;;;;;;5057777;28;20064;-32
2022/01/23 09:25:40;;;;;;;45.88;21.27;;;0.50;69.20;;;;;;5057211;28;20071;-33
2022/01/23 09:28:12;;;;;;;257.50;134.98;;;0.60;69.00;;;;;;5057442;28;20040;-32
2022/01/23 09:30:40;;;;;;;14.02;8.40;;;0.70;68.90;;;;;;5057056;28;20029;-32
2022/01/23 09:33:06;;;;;;;23.92;15.13;;;0.90;68.70;;;;;;5057448;28;20051;-32
2022/01/23 09:35:31;;;;;;;15.55;8.38;;;1.00;68.20;;;;;;5056944;28;20120;-32
2022/01/23 09:37:58;;;;;;;17.90;9.50;;;1.10;67.80;;;;;;5057504;28;20028;-33
2022/01/23 09:40:25;;;;;;;48.33;29.65;;;1.20;67.40;;;;;;5056751;28;20025;-33
2022/01/23 09:42:59;;;;;;;15.55;9.07;;;1.20;66.90;;;;;;5056019;28;20103;-33
2022/01/23 09:45:25;;;;;;;37.13;21.80;;;1.20;66.50;;;;;;5056732;28;20047;-32
2022/01/23 09:47:55;;;;;;;19.00;10.70;;;1.30;66.50;;;;;;5056839;28;20316;-33
2022/01/23 09:50:21;;;;;;;18.13;10.90;;;1.30;66.40;;;;;;5056515;28;20029;-33
2022/01/23 09:52:52;;;;;;;22.95;13.40;;;1.30;66.50;;;;;;5056689;28;20029;-33
2022/01/23 09:55:19;;;;;;;102.72;54.60;;;1.30;66.40;;;;;;5056646;28;20036;-33
2022/01/23 09:57:49;;;;;;;73.03;37.95;;;1.40;66.40;;;;;;5057015;28;20033;-33
2022/01/23 10:00:18;;;;;;;18.10;10.85;;;1.50;66.40;;;;;;5056216;28;20121;-33
2022/01/23 10:02:46;;;;;;;38.65;20.35;;;1.60;66.30;;;;;;5056452;28;20479;-32
2022/01/23 10:05:12;;;;;;;244.05;106.53;;;1.70;66.20;;;;;;5056038;28;20044;-32
2022/01/23 10:07:41;;;;;;;59.47;27.77;;;1.70;65.90;;;;;;5056371;28;20045;-32
2022/01/23 10:10:15;;;;;;;15.13;8.85;;;1.80;65.50;;;;;;5056639;28;20455;-32
2022/01/23 10:12:45;;;;;;;13.80;8.43;;;1.80;65.20;;;;;;5056599;28;20025;-32
2022/01/23 10:15:11;;;;;;;14.93;8.60;;;1.90;65.00;;;;;;5056558;28;20025;-33
2022/01/23 10:17:37;;;;;;;14.00;7.85;;;1.90;64.90;;;;;;5056778;28;20319;-33
2022/01/23 10:20:08;;;;;;;12.10;8.20;;;2.00;64.80;;;;;;5055005;28;20040;-33
2022/01/23 10:22:36;;;;;;;20.27;9.50;;;2.10;65.10;;;;;;5055585;28;20040;-33
2022/01/23 10:25:10;;;;;;;12.90;8.20;;;2.10;64.50;;;;;;5056510;28;20120;-33
2022/01/23 10:27:56;;;;;;;15.82;8.40;;;2.20;64.30;;;;;;5056044;28;20090;-33
2022/01/23 10:30:29;;;;;;;13.95;8.20;;;2.20;64.00;;;;;;5056168;28;20037;-32
2022/01/23 10:33:08;;;;;;;15.63;8.70;;;2.30;63.90;;;;;;5054999;28;20025;-32
2022/01/23 10:35:51;;;;;;;12.57;7.80;;;2.30;63.90;;;;;;5055970;28;20029;-33
2022/01/23 10:38:18;;;;;;;104.97;48.58;;;2.30;63.90;;;;;;5056256;28;20025;-32
2022/01/23 10:40:50;;;;;;;22.95;13.52;;;2.30;63.90;;;;;;5056177;28;20361;-32
2022/01/23 10:48:47;;;;;;;20.17;11.80;;;2.50;63.80;;;;;;5056160;28;20091;-33
2022/01/23 10:51:36;;;;;;;66.63;32.25;;;2.60;63.80;;;;;;5055629;28;20068;-33
2022/01/23 10:54:15;;;;;;;114.10;62.58;;;2.60;63.60;;;;;;5056283;28;20032;-32
2022/01/23 10:56:52;;;;;;;27.95;18.42;;;2.70;63.60;;;;;;5055659;28;20036;-33
2022/01/23 10:59:18;;;;;;;16.40;9.40;;;2.70;63.60;;;;;;5055582;28;20029;-32
2022/01/23 11:02:07;;;;;;;150.95;66.18;;;2.80;63.50;;;;;;5055220;28;20066;-32
2022/01/23 11:05:00;;;;;;;19.50;10.00;;;2.80;62.80;;;;;;5055350;28;20048;-32
2022/01/23 11:07:28;;;;;;;21.08;11.38;;;2.70;62.40;;;;;;5055527;28;20041;-32
2022/01/23 11:09:57;;;;;;;42.13;20.70;;;2.70;62.30;;;;;;5055681;28;20025;-32
2022/01/23 11:12:46;;;;;;;15.35;8.93;;;2.60;62.30;;;;;;5055444;28;20031;-32
2022/01/23 11:18:03;;;;;;;126.53;49.78;;;2.50;62.60;;;;;;5055727;28;20502;-32
2022/01/23 11:20:45;;;;;;;36.33;17.25;;;2.40;62.90;;;;;;5055360;28;20036;-33
2022/01/23 11:23:12;;;;;;;25.90;13.38;;;2.40;62.90;;;;;;5055601;28;20036;-32
2022/01/23 11:26:05;;;;;;;28.00;12.23;;;2.30;63.10;;;;;;5054298;28;20032;-33
2022/01/23 11:28:45;;;;;;;98.25;38.03;;;2.30;63.20;;;;;;5055606;28;20029;-32
2022/01/23 11:31:18;;;;;;;38.85;18.58;;;2.30;63.30;;;;;;5055192;28;20032;-33
2022/01/23 11:33:45;;;;;;;255.40;96.35;;;2.20;63.50;;;;;;5055719;28;20025;-32
2022/01/23 11:36:11;;;;;;;24.40;11.95;;;2.20;63.70;;;;;;5055688;28;20025;-33
2022/01/23 11:38:39;;;;;;;28.55;12.82;;;2.30;63.70;;;;;;5055561;28;20305;-32
2022/01/23 11:54:47;;;;;;;65.05;30.15;;;2.20;63.60;;;;;;5055486;28;20110;-33
2022/01/23 11:57:41;;;;;;;274.38;129.13;;;2.20;63.50;;;;;;5055432;28;20040;-32
2022/01/23 12:00:19;;;;;;;161.48;79.15;;;2.20;63.40;;;;;;5054567;28;20056;-33
2022/01/23 12:03:10;;;;;;;139.02;68.57;;;2.20;63.70;;;;;;5055259;28;20354;-32
2022/01/23 12:05:39;;;;;;;103.13;49.28;;;2.20;63.90;;;;;;5054580;28;20411;-32
2022/01/23 12:08:35;;;;;;;58.50;26.92;;;2.10;63.90;;;;;;5055104;28;20048;-32
2022/01/23 12:16:32;;;;;;;35.50;18.90;;;2.10;64.20;;;;;;5055022;28;20055;-33
2022/01/23 12:19:19;;;;;;;17.10;10.75;;;2.10;64.10;;;;;;5054027;28;20063;-32
2022/01/23 12:21:46;;;;;;;21.60;12.88;;;2.10;64.00;;;;;;5055107;28;20033;-32
2022/01/23 12:24:15;;;;;;;73.93;37.20;;;2.10;64.10;;;;;;5053546;28;20037;-32
2022/01/23 12:26:45;;;;;;;73.53;36.33;;;2.10;64.20;;;;;;5054686;28;20029;-33
2022/01/23 12:29:12;;;;;;;84.80;42.67;;;2.10;64.30;;;;;;5054975;28;20036;-32
2022/01/23 12:31:39;;;;;;;24.15;13.23;;;2.10;64.40;;;;;;5054837;28;20043;-32
2022/01/23 12:34:05;;;;;;;33.13;18.92;;;2.10;64.30;;;;;;5054983;28;20489;-32
2022/01/23 12:36:33;;;;;;;24.35;13.57;;;2.10;64.30;;;;;;5054714;28;20075;-32
2022/01/23 12:39:08;;;;;;;139.90;76.43;;;2.10;64.10;;;;;;5058725;28;20056;-33
2022/01/23 12:41:39;;;;;;;31.17;18.58;;;2.10;64.10;;;;;;5058489;28;20286;-32
2022/01/23 12:44:23;;;;;;;68.38;33.35;;;2.10;64.20;;;;;;5058507;28;20041;-32
2022/01/23 12:46:59;;;;;;;30.08;16.23;;;2.10;64.30;;;;;;5057986;28;20040;-32
2022/01/23 12:49:28;;;;;;;24.58;13.88;;;2.10;64.40;;;;;;5058193;28;20029;-32
2022/01/23 12:51:57;;;;;;;90.28;45.75;;;2.10;64.40;;;;;;5057917;28;20448;-32
2022/01/23 12:54:28;;;;;;;73.68;35.55;;;2.10;64.30;;;;;;5058178;28;20341;-32
2022/01/23 12:56:55;;;;;;;23.77;13.65;;;2.00;64.20;;;;;;5058346;28;20033;-33
2022/01/23 12:59:32;;;;;;;23.40;13.95;;;2.00;64.10;;;;;;5057799;28;20317;-32
2022/01/23 13:02:07;;;;;;;32.47;19.13;;;2.00;64.00;;;;;;5057682;28;20033;-32
2022/01/23 13:04:37;;;;;;;37.28;21.45;;;1.90;63.80;;;;;;5057796;28;20452;-33
2022/01/23 13:07:11;;;;;;;36.70;19.58;;;1.80;63.80;;;;;;5056576;28;20032;-32
2022/01/23 13:12:10;;;;;;;22.48;12.75;;;1.70;64.00;;;;;;5058088;28;20035;-32
2022/01/23 13:15:15;;;;;;;22.48;12.90;;;1.60;64.00;;;;;;5057816;28;20064;-32
2022/01/23 13:31:44;;;;;;;38.50;20.15;;;1.10;65.00;;;;;;5057309;28;20036;-39
2022/01/23 13:34:34;;;;;;;164.00;71.38;;;1.00;65.10;;;;;;5057817;28;20126;-36
2022/01/23 13:37:03;;;;;;;126.38;53.88;;;0.90;65.30;;;;;;5057289;28;20025;-41
2022/01/23 13:39:34;;;;;;;23.42;12.88;;;0.90;65.50;;;;;;5057444;28;20052;-35
2022/01/23 13:42:16;;;;;;;22.75;12.85;;;0.80;65.70;;;;;;5057316;28;20093;-36
2022/01/23 13:53:38;;;;;;;;;;;0.60;66.20;;;;;;5057452;28;20186;-40
2022/01/23 13:59:54;;;;;;;120.47;46.70;;;0.50;66.40;;;;;;5054356;28;20415;-38
2022/01/23 14:02:35;;;;;;;37.90;19.02;;;0.50;66.70;;;;;;5054658;28;20403;-38
2022/01/23 14:05:19;;;;;;;46.83;20.90;;;0.40;67.10;;;;;;5054208;28;20083;-38
2022/01/23 14:07:48;;;;;;;22.92;12.20;;;0.30;67.20;;;;;;5054852;28;20041;-35
2022/01/23 14:10:44;;;;;;;22.55;12.50;;;0.30;67.30;;;;;;5054352;28;20043;-39
2022/01/23 14:13:16;;;;;;;26.73;13.98;;;0.30;67.60;;;;;;5054064;28;20060;-37
2022/01/23 14:15:43;;;;;;;41.22;19.55;;;0.30;67.80;;;;;;5054158;28;20033;-36
2022/01/23 14:18:11;;;;;;;82.68;35.92;;;0.20;67.80;;;;;;5054410;28;20021;-39
2022/01/23 14:20:45;;;;;;;85.93;36.53;;;0.20;68.10;;;;;;5053937;28;20041;-40
2022/01/23 14:23:20;;;;;;;27.00;14.18;;;0.20;68.20;;;;;;5054369;28;20113;-36
2022/01/23 14:25:50;;;;;;;69.55;32.22;;;0.20;68.30;;;;;;5053792;28;20043;-38
2022/01/23 14:28:25;;;;;;;105.20;48.70;;;0.10;68.40;;;;;;5054283;28;20343;-40
2022/01/23 14:30:54;;;;;;;34.20;18.20;;;0.10;68.50;;;;;;5054058;28;20057;-41
2022/01/23 14:33:22;;;;;;;68.25;32.78;;;0.10;68.60;;;;;;5053932;28;20033;-37
2022/01/23 14:35:49;;;;;;;25.67;13.13;;;0.00;68.80;;;;;;5053918;28;20049;-40
2022/01/23 14:38:23;;;;;;;32.80;17.52;;;0.00;68.80;;;;;;5054060;28;20425;-39
2022/01/23 14:40:55;;;;;;;28.75;15.05;;;0.00;69.00;;;;;;5053802;28;20468;-41
2022/01/23 14:43:21;;;;;;;30.73;15.38;;;-0.10;69.00;;;;;;5055547;28;20048;-39
2022/01/23 14:45:50;;;;;;;26.02;13.63;;;-0.10;69.20;;;;;;5055862;28;20052;-39
2022/01/23 14:48:17;;;;;;;29.65;15.05;;;-0.10;69.40;;;;;;5056222;28;20333;-39
2022/01/23 14:50:50;;;;;;;31.90;16.65;;;-0.10;69.30;;;;;;5056022;28;20306;-35
2022/01/23 14:53:29;;;;;;;22.38;13.45;;;-0.10;69.40;;;;;;5056030;28;20095;-41
2022/01/23 14:55:59;;;;;;;79.20;37.17;;;-0.10;69.50;;;;;;5055410;28;20025;-38
2022/01/23 14:58:25;;;;;;;230.68;85.55;;;-0.20;69.40;;;;;;5056086;28;20352;-39
2022/01/23 15:00:56;;;;;;;35.53;15.25;;;-0.20;69.50;;;;;;5054692;28;20043;-37
2022/01/23 15:03:22;;;;;;;;;;;-0.20;69.60;;;;;;5056396;28;20086;-36
2022/01/23 15:05:48;;;;;;;30.23;14.13;;;-0.20;70.10;;;;;;5055573;28;19917;-37
2022/01/23 15:08:20;;;;;;;30.10;15.70;;;-0.20;69.60;;;;;;5055922;28;20360;-40
2022/01/23 15:10:48;;;;;;;100.63;46.80;;;-0.20;69.80;;;;;;5055473;28;20037;-37
2022/01/23 15:13:14;;;;;;;38.55;19.83;;;-0.20;69.80;;;;;;5056034;28;20028;-33
2022/01/23 15:15:40;;;;;;;97.78;40.97;;;-0.30;69.60;;;;;;5055637;28;20322;-35
2022/01/23 15:18:07;;;;;;;37.95;17.65;;;-0.30;69.70;;;;;;5055642;28;20024;-42
2022/01/23 15:20:35;;;;;;;86.13;35.92;;;-0.30;69.70;;;;;;5055779;28;20055;-41
2022/01/23 15:23:02;;;;;;;68.18;29.42;;;-0.30;69.80;;;;;;5055887;28;20029;-42
2022/01/23 15:25:28;;;;;;;31.27;16.08;;;-0.30;69.70;;;;;;5055408;28;20048;-42
2022/01/23 15:27:54;;;;;;;37.85;18.38;;;-0.30;69.90;;;;;;5054312;28;20028;-35
2022/01/23 15:30:22;;;;;;;79.97;38.35;;;-0.40;70.10;;;;;;5055142;28;20029;-37
2022/01/23 15:32:51;;;;;;;54.65;26.40;;;-0.40;70.20;;;;;;5054427;28;20111;-41
2022/01/23 15:35:17;;;;;;;30.55;14.30;;;-0.40;70.30;;;;;;5055368;28;20037;-38
2022/01/23 15:37:43;;;;;;;31.85;16.52;;;-0.30;70.50;;;;;;5055522;28;20029;-40
2022/01/23 15:40:10;;;;;;;52.38;24.52;;;-0.30;70.60;;;;;;5055431;28;20037;-37
2022/01/23 15:42:41;;;;;;;45.15;21.70;;;-0.30;70.50;;;;;;5055381;28;20040;-37
2022/01/23 15:45:07;;;;;;;290.35;143.80;;;-0.20;70.70;;;;;;5055370;28;20095;-36
2022/01/23 15:47:34;;;;;;;340.42;120.00;;;-0.20;70.60;;;;;;5055213;28;20037;-37
2022/01/23 15:50:00;;;;;;;177.60;70.85;;;-0.10;70.60;;;;;;5055423;28;20415;-39
2022/01/23 15:52:26;;;;;;;29.58;15.48;;;-0.10;70.50;;;;;;5054983;28;20116;-38
2022/01/23 15:54:51;;;;;;;93.38;48.47;;;-0.10;70.50;;;;;;5055482;28;20031;-36
2022/01/23 15:57:17;;;;;;;270.27;87.03;;;0.00;70.50;;;;;;5055688;28;20417;-37
2022/01/23 15:59:43;;;;;;;39.75;18.17;;;0.00;70.50;;;;;;5055458;28;20059;-39
2022/01/23 16:02:09;;;;;;;50.35;21.92;;;0.00;70.40;;;;;;5055352;28;20033;-39
2022/01/23 16:04:37;;;;;;;92.35;39.25;;;0.00;70.20;;;;;;5055180;28;20052;-35
2022/01/23 16:07:04;;;;;;;51.42;26.98;;;0.00;70.20;;;;;;5055167;28;20120;-37
2022/01/23 16:09:30;;;;;;;35.83;17.30;;;0.00;70.10;;;;;;5055320;28;20040;-41
2022/01/23 16:11:56;;;;;;;38.90;18.05;;;0.00;70.10;;;;;;5056909;28;20033;-41